Observation data for Jayton on 02/14/2020      Previous  Date  Next       Current Mesonet Observations  Soil Data  Daily Summary Page  Observations in Plain Language
KJTS 140600Z 08006KT M02/M05 A3035 RMK A01 T10231052  RH  081%=      5-min Rain = 0
KJTS 140605Z 07006KT M02/M05 A3035 RMK A01 T10241052  RH  081%=      5-min Rain = 0
KJTS 140610Z 06006KT M03/M05 A3035 RMK A01 T10261053  RH  082%=      5-min Rain = 0
KJTS 140615Z 07006KT M03/M05 A3035 RMK A01 T10281053  RH  083%=      5-min Rain = 0
KJTS 140620Z 07005KT M03/M05 A3035 RMK A01 T10291053  RH  083%=      5-min Rain = 0
KJTS 140625Z 07004KT M03/M05 A3036 RMK A01 T10301054  RH  084%=      5-min Rain = 0
KJTS 140630Z 07004KT M03/M05 A3036 RMK A01 T10321054  RH  085%=      5-min Rain = 0
KJTS 140635Z 07005KT M03/M05 A3036 RMK A01 T10321054  RH  085%=      5-min Rain = 0
KJTS 140640Z 07005KT M03/M05 A3036 RMK A01 T10331054  RH  086%=      5-min Rain = 0
KJTS 140645Z 06005KT M03/M05 A3036 RMK A01 T10341054  RH  086%=      5-min Rain = 0
KJTS 140650Z 06004KT M03/M05 A3036 RMK A01 T10341054  RH  086%=      5-min Rain = 0
KJTS 140655Z 06005KT M04/M06 A3036 RMK A01 T10361055  RH  087%=      5-min Rain = 0
KJTS 140700Z 06005KT M04/M06 A3036 RMK A01 T10361055  RH  087%=      5-min Rain = 0
KJTS 140705Z 06005KT M04/M06 A3036 RMK A01 T10371055  RH  088%=      5-min Rain = 0
KJTS 140710Z 06005KT M04/M06 A3036 RMK A01 T10371055  RH  088%=      5-min Rain = 0
KJTS 140715Z 06005KT M04/M06 A3036 RMK A01 T10381055  RH  088%=      5-min Rain = 0
KJTS 140720Z 06004KT M04/M06 A3036 RMK A01 T10391055  RH  089%=      5-min Rain = 0
KJTS 140725Z 05005KT M04/M06 A3036 RMK A01 T10401055  RH  089%=      5-min Rain = 0
KJTS 140730Z 06005KT M04/M06 A3036 RMK A01 T10411056  RH  090%=      5-min Rain = 0
KJTS 140735Z 06005KT M04/M06 A3036 RMK A01 T10401055  RH  090%=      5-min Rain = 0
KJTS 140740Z 06005KT M04/M06 A3036 RMK A01 T10401055  RH  089%=      5-min Rain = 0
KJTS 140745Z 06005KT M04/M06 A3036 RMK A01 T10401055  RH  089%=      5-min Rain = 0
KJTS 140750Z 06005KT M04/M06 A3036 RMK A01 T10401056  RH  089%=      5-min Rain = 0
KJTS 140755Z 06005KT M04/M06 A3036 RMK A01 T10411056  RH  089%=      5-min Rain = 0
KJTS 140800Z 06005KT M04/M06 A3036 RMK A01 T10411056  RH  089%=      5-min Rain = 0
KJTS 140805Z 05005KT M04/M06 A3036 RMK A01 T10421057  RH  089%=      5-min Rain = 0
KJTS 140810Z 05005KT M04/M06 A3036 RMK A01 T10421057  RH  089%=      5-min Rain = 0
KJTS 140815Z 05005KT M04/M06 A3036 RMK A01 T10401056  RH  089%=      5-min Rain = 0
KJTS 140820Z 05006KT M04/M06 A3036 RMK A01 T10401057  RH  088%=      5-min Rain = 0
KJTS 140825Z 05005KT M04/M06 A3036 RMK A01 T10401058  RH  088%=      5-min Rain = 0
KJTS 140830Z 04006KT M04/M06 A3036 RMK A01 T10401058  RH  087%=      5-min Rain = 0
KJTS 140835Z 05005KT M04/M06 A3036 RMK A01 T10401059  RH  087%=      5-min Rain = 0
KJTS 140840Z 05004KT M04/M06 A3036 RMK A01 T10421060  RH  087%=      5-min Rain = 0
KJTS 140845Z 05005KT M04/M06 A3036 RMK A01 T10431061  RH  087%=      5-min Rain = 0
KJTS 140850Z 05005KT M04/M06 A3036 RMK A01 T10431061  RH  087%=      5-min Rain = 0
KJTS 140855Z 05005KT M04/M06 A3036 RMK A01 T10441061  RH  088%=      5-min Rain = 0
KJTS 140900Z 05005KT M04/M06 A3036 RMK A01 T10441061  RH  088%=      5-min Rain = 0
KJTS 140905Z 05005KT M04/M06 A3036 RMK A01 T10431062  RH  087%=      5-min Rain = 0
KJTS 140910Z 06005KT M04/M06 A3037 RMK A01 T10431063  RH  086%=      5-min Rain = 0
KJTS 140915Z 05005KT M04/M06 A3036 RMK A01 T10431063  RH  087%=      5-min Rain = 0
KJTS 140920Z 04004KT M04/M06 A3036 RMK A01 T10431062  RH  086%=      5-min Rain = 0
KJTS 140925Z 04005KT M04/M06 A3036 RMK A01 T10431061  RH  087%=      5-min Rain = 0
KJTS 140930Z 03005KT M04/M06 A3036 RMK A01 T10411060  RH  087%=      5-min Rain = 0
KJTS 140935Z 03004KT M04/M06 A3036 RMK A01 T10421060  RH  087%=      5-min Rain = 0
KJTS 140940Z 03005KT M04/M06 A3036 RMK A01 T10421060  RH  087%=      5-min Rain = 0
KJTS 140945Z 03004KT M04/M06 A3036 RMK A01 T10421060  RH  087%=      5-min Rain = 0
KJTS 140950Z 03005KT M04/M06 A3036 RMK A01 T10431061  RH  087%=      5-min Rain = 0
KJTS 140955Z 03005KT M04/M06 A3036 RMK A01 T10431062  RH  087%=      5-min Rain = 0
KJTS 141000Z 03005KT M04/M06 A3036 RMK A01 T10431062  RH  087%=      5-min Rain = 0
KJTS 141005Z 03005KT M04/M06 A3036 RMK A01 T10441063  RH  087%=      5-min Rain = 0
KJTS 141010Z 03005KT M04/M06 A3036 RMK A01 T10441063  RH  087%=      5-min Rain = 0
KJTS 141015Z 03005KT M05/M06 A3036 RMK A01 T10451063  RH  087%=      5-min Rain = 0
KJTS 141020Z 03004KT M05/M06 A3036 RMK A01 T10451063  RH  088%=      5-min Rain = 0
KJTS 141025Z 03005KT M05/M06 A3036 RMK A01 T10461063  RH  088%=      5-min Rain = 0
KJTS 141030Z 03005KT M05/M06 A3037 RMK A01 T10461063  RH  088%=      5-min Rain = 0
KJTS 141035Z 03005KT M05/M06 A3037 RMK A01 T10461064  RH  087%=      5-min Rain = 0
KJTS 141040Z 03004KT M05/M06 A3037 RMK A01 T10471064  RH  088%=      5-min Rain = 0
KJTS 141045Z 02005KT M05/M06 A3037 RMK A01 T10471064  RH  088%=      5-min Rain = 0
KJTS 141050Z 03005KT M05/M07 A3037 RMK A01 T10471065  RH  087%=      5-min Rain = 0
KJTS 141055Z 02004KT M05/M07 A3037 RMK A01 T10471065  RH  088%=      5-min Rain = 0
KJTS 141100Z 02004KT M05/M07 A3037 RMK A01 T10481065  RH  088%=      5-min Rain = 0
KJTS 141105Z 02005KT M05/M07 A3037 RMK A01 T10481065  RH  088%=      5-min Rain = 0
KJTS 141110Z 02004KT M05/M06 A3037 RMK A01 T10481064  RH  089%=      5-min Rain = 0
KJTS 141115Z 03005KT M05/M06 A3037 RMK A01 T10461062  RH  089%=      5-min Rain = 0
KJTS 141120Z 02006KT M05/M06 A3037 RMK A01 T10451062  RH  088%=      5-min Rain = 0
KJTS 141125Z 02006KT M05/M06 A3037 RMK A01 T10451063  RH  087%=      5-min Rain = 0
KJTS 141130Z 02005KT M05/M06 A3037 RMK A01 T10451064  RH  087%=      5-min Rain = 0
KJTS 141135Z 03006KT M05/M06 A3037 RMK A01 T10451064  RH  087%=      5-min Rain = 0
KJTS 141140Z 03007KT M05/M07 A3037 RMK A01 T10451065  RH  086%=      5-min Rain = 0
KJTS 141145Z 03006KT M05/M07 A3037 RMK A01 T10451065  RH  086%=      5-min Rain = 0
KJTS 141150Z 03006KT M05/M07 A3037 RMK A01 T10461065  RH  087%=      5-min Rain = 0
KJTS 141155Z 03005KT M05/M06 A3037 RMK A01 T10451064  RH  087%=      5-min Rain = 0
KJTS 141200Z 04005KT M05/M06 A3037 RMK A01 T10451062  RH  088%=      5-min Rain = 0
KJTS 141205Z 04005KT M04/M06 A3037 RMK A01 T10441062  RH  088%=      5-min Rain = 0
KJTS 141210Z 04006KT M04/M06 A3037 RMK A01 T10441062  RH  087%=      5-min Rain = 0
KJTS 141215Z 04006KT M04/M06 A3037 RMK A01 T10441062  RH  087%=      5-min Rain = 0
KJTS 141220Z 04006KT M04/M06 A3037 RMK A01 T10431062  RH  087%=      5-min Rain = 0
KJTS 141225Z 04005KT M04/M06 A3037 RMK A01 T10431062  RH  087%=      5-min Rain = 0
KJTS 141230Z 05005KT M04/M06 A3038 RMK A01 T10421062  RH  086%=      5-min Rain = 0
KJTS 141235Z 05005KT M04/M06 A3038 RMK A01 T10411063  RH  085%=      5-min Rain = 0
KJTS 141240Z 04006KT M04/M06 A3038 RMK A01 T10411063  RH  085%=      5-min Rain = 0
KJTS 141245Z 05006KT M04/M07 A3038 RMK A01 T10411065  RH  084%=      5-min Rain = 0
KJTS 141250Z 06005KT M04/M06 A3038 RMK A01 T10401064  RH  084%=      5-min Rain = 0
KJTS 141255Z 06005KT M04/M06 A3039 RMK A01 T10401063  RH  084%=      5-min Rain = 0
KJTS 141300Z 06006KT M04/M06 A3039 RMK A01 T10401063  RH  084%=      5-min Rain = 0
KJTS 141305Z 07006KT M04/M06 A3039 RMK A01 T10401063  RH  084%=      5-min Rain = 0
KJTS 141310Z 06005KT M04/M06 A3039 RMK A01 T10391063  RH  084%=      5-min Rain = 0
KJTS 141315Z 06006KT M04/M07 A3038 RMK A01 T10391065  RH  082%=      5-min Rain = 0
KJTS 141320Z 07005KT M04/M07 A3039 RMK A01 T10391065  RH  082%=      5-min Rain = 0
KJTS 141325Z 06005KT M04/M07 A3039 RMK A01 T10391065  RH  082%=      5-min Rain = 0
KJTS 141330Z 07005KT M04/M07 A3039 RMK A01 T10391066  RH  082%=      5-min Rain = 0
KJTS 141335Z 06007KT M04/M07 A3039 RMK A01 T10401068  RH  081%=      5-min Rain = 0
KJTS 141340Z 06006KT M04/M07 A3039 RMK A01 T10401068  RH  081%=      5-min Rain = 0
KJTS 141345Z 06007KT M04/M07 A3039 RMK A01 T10401068  RH  081%=      5-min Rain = 0
KJTS 141350Z 06006KT M04/M07 A3039 RMK A01 T10401068  RH  081%=      5-min Rain = 0
KJTS 141355Z 05007KT M04/M07 A3039 RMK A01 T10401068  RH  081%=      5-min Rain = 0
KJTS 141400Z 06007KT M04/M07 A3039 RMK A01 T10401069  RH  081%=      5-min Rain = 0
KJTS 141405Z 06007KT M04/M07 A3039 RMK A01 T10401068  RH  081%=      5-min Rain = 0
KJTS 141410Z 06007KT M04/M07 A304 RMK A01 T10401068  RH  081%=      5-min Rain = 0
KJTS 141415Z 06005KT M04/M07 A304 RMK A01 T10391066  RH  081%=      5-min Rain = 0
KJTS 141420Z 07004KT M04/M07 A304 RMK A01 T10381065  RH  082%=      5-min Rain = 0
KJTS 141425Z 06005KT M04/M07 A304 RMK A01 T10381065  RH  082%=      5-min Rain = 0
KJTS 141430Z 07006KT M04/M07 A304 RMK A01 T10381065  RH  082%=      5-min Rain = 0
KJTS 141435Z 07006KT M04/M06 A304 RMK A01 T10371064  RH  082%=      5-min Rain = 0
KJTS 141440Z 06007KT M04/M07 A304 RMK A01 T10371065  RH  081%=      5-min Rain = 0
KJTS 141445Z 06007KT M04/M06 A304 RMK A01 T10371064  RH  082%=      5-min Rain = 0
KJTS 141450Z 07006KT M04/M06 A304 RMK A01 T10361064  RH  081%=      5-min Rain = 0
KJTS 141455Z 07005KT M04/M06 A304 RMK A01 T10351063  RH  081%=      5-min Rain = 0
KJTS 141500Z 06006KT M04/M06 A304 RMK A01 T10351063  RH  081%=      5-min Rain = 0
KJTS 141505Z 06005KT M04/M06 A3041 RMK A01 T10351064  RH  081%=      5-min Rain = 0
KJTS 141510Z 07005KT M03/M06 A3041 RMK A01 T10341063  RH  080%=      5-min Rain = 0
KJTS 141515Z 08005KT M03/M06 A3041 RMK A01 T10341063  RH  080%=      5-min Rain = 0
KJTS 141520Z 07005KT M03/M06 A3041 RMK A01 T10331063  RH  080%=      5-min Rain = 0
KJTS 141525Z 07004KT M03/M06 A3041 RMK A01 T10321062  RH  080%=      5-min Rain = 0
KJTS 141530Z 06003KT M03/M06 A3041 RMK A01 T10311061  RH  080%=      5-min Rain = 0
KJTS 141535Z 08003KT M03/M06 A3041 RMK A01 T10301060  RH  080%=      5-min Rain = 0
KJTS 141540Z 08003KT M03/M06 A3041 RMK A01 T10301060  RH  080%=      5-min Rain = 0
KJTS 141545Z 07004KT M03/M06 A3041 RMK A01 T10281059  RH  080%=      5-min Rain = 0
KJTS 141550Z 09005KT M03/M06 A3041 RMK A01 T10281058  RH  080%=      5-min Rain = 0
KJTS 141555Z 10004KT M03/M06 A3041 RMK A01 T10261056  RH  080%=      5-min Rain = 0
KJTS 141600Z 11003KT M03/M06 A3041 RMK A01 T10251056  RH  079%=      5-min Rain = 0
KJTS 141605Z 10004KT M02/M05 A304 RMK A01 T10231054  RH  079%=      5-min Rain = 0
KJTS 141610Z 09005KT M02/M05 A304 RMK A01 T10221053  RH  080%=      5-min Rain = 0
KJTS 141615Z 09005KT M02/M05 A304 RMK A01 T10221053  RH  079%=      5-min Rain = 0
KJTS 141620Z 09004KT M02/M05 A304 RMK A01 T10221053  RH  079%=      5-min Rain = 0
KJTS 141625Z 09004KT M02/M05 A304 RMK A01 T10211053  RH  079%=      5-min Rain = 0
KJTS 141630Z 11004KT M02/M05 A304 RMK A01 T10191051  RH  079%=      5-min Rain = 0
KJTS 141635Z 09004KT M02/M05 A304 RMK A01 T10161048  RH  079%=      5-min Rain = 0
KJTS 141640Z 10004KT M02/M05 A304 RMK A01 T10171050  RH  078%=      5-min Rain = 0
KJTS 141645Z 11004KT M02/M05 A304 RMK A01 T10161048  RH  079%=      5-min Rain = 0
KJTS 141650Z 12005KT M01/M05 A304 RMK A01 T10131046  RH  079%=      5-min Rain = 0
KJTS 141655Z 12004KT M01/M05 A304 RMK A01 T10121045  RH  078%=      5-min Rain = 0
KJTS 141700Z 12002G7KT M01/M05 A304 RMK A01 T10101045  RH  078%=      5-min Rain = 0
KJTS 141705Z 10004KT M01/M04 A304 RMK A01 T10091044  RH  078%=      5-min Rain = 0
KJTS 141710Z 10002KT M01/M04 A304 RMK A01 T10091043  RH  078%=      5-min Rain = 0
KJTS 141715Z 11005KT M00/M04 A304 RMK A01 T10031038  RH  078%=      5-min Rain = 0
KJTS 141720Z 15006KT M00/M04 A304 RMK A01 T10011035  RH  078%=      5-min Rain = 0
KJTS 141725Z 16004KT 00/03 A3039 RMK A01 T00-00-33  RH  079%=      5-min Rain = 0
KJTS 141730Z 16004G9KT 00/M03 A3039 RMK A01 T00021031  RH  079%=      5-min Rain = 0
KJTS 141735Z 17005G10KT 00/M03 A3039 RMK A01 T00031033  RH  077%=      5-min Rain = 0
KJTS 141740Z 14005KT 00/M03 A3039 RMK A01 T00021032  RH  078%=      5-min Rain = 0
KJTS 141745Z 16006KT 00/M03 A3038 RMK A01 T00041032  RH  077%=      5-min Rain = 0
KJTS 141750Z 15005G10KT 01/M03 A3038 RMK A01 T00071030  RH  077%=      5-min Rain = 0
KJTS 141755Z 16007KT 01/M03 A3038 RMK A01 T00101030  RH  075%=      5-min Rain = 0
KJTS 141800Z 18006KT 01/M03 A3037 RMK A01 T00081031  RH  075%=      5-min Rain = 0
KJTS 141805Z 14005KT 01/M03 A3037 RMK A01 T00081031  RH  076%=      5-min Rain = 0
KJTS 141810Z 13007KT 01/M03 A3036 RMK A01 T00131026  RH  075%=      5-min Rain = 0
KJTS 141815Z 14005KT 02/M03 A3036 RMK A01 T00171028  RH  073%=      5-min Rain = 0
KJTS 141820Z 11005KT 02/M02 A3036 RMK A01 T00211023  RH  073%=      5-min Rain = 0
KJTS 141825Z 14005KT 02/M03 A3035 RMK A01 T00221026  RH  071%=      5-min Rain = 0
KJTS 141830Z 14005KT 02/M03 A3035 RMK A01 T00231025  RH  071%=      5-min Rain = 0
KJTS 141835Z 15005G10KT 03/M02 A3034 RMK A01 T00251023  RH  071%=      5-min Rain = 0
KJTS 141840Z 17006KT 03/M02 A3034 RMK A01 T00301024  RH  068%=      5-min Rain = 0
KJTS 141845Z 14005G10KT 03/M02 A3034 RMK A01 T00321021  RH  068%=      5-min Rain = 0
KJTS 141850Z 14005KT 04/M02 A3034 RMK A01 T00351021  RH  067%=      5-min Rain = 0
KJTS 141855Z 18007G12KT 04/M02 A3034 RMK A01 T00381022  RH  066%=      5-min Rain = 0
KJTS 141900Z 18005G10KT 04/M02 A3033 RMK A01 T00371021  RH  066%=      5-min Rain = 0
KJTS 141905Z 15008KT 04/M02 A3033 RMK A01 T00401022  RH  064%=      5-min Rain = 0
KJTS 141910Z 17009KT 04/M02 A3033 RMK A01 T00431022  RH  063%=      5-min Rain = 0
KJTS 141915Z 18008G14KT 04/M02 A3032 RMK A01 T00431022  RH  063%=      5-min Rain = 0
KJTS 141920Z 17007G12KT 05/M02 A3032 RMK A01 T00451022  RH  062%=      5-min Rain = 0
KJTS 141925Z 18008KT 05/M02 A3031 RMK A01 T00481020  RH  062%=      5-min Rain = 0
KJTS 141930Z 19009KT 05/M02 A3031 RMK A01 T00471021  RH  062%=      5-min Rain = 0
KJTS 141935Z 18005G12KT 05/M02 A3031 RMK A01 T00481020  RH  062%=      5-min Rain = 0
KJTS 141940Z 20007G12KT 05/M02 A303 RMK A01 T00521017  RH  061%=      5-min Rain = 0
KJTS 141945Z 18006KT 05/M02 A303 RMK A01 T00521018  RH  061%=      5-min Rain = 0
KJTS 141950Z 16007G12KT 05/M02 A303 RMK A01 T00531017  RH  061%=      5-min Rain = 0
KJTS 141955Z 20009G14KT 06/M02 A3029 RMK A01 T00571015  RH  060%=      5-min Rain = 0
KJTS 142000Z 18009G14KT 06/M02 A3029 RMK A01 T00591015  RH  060%=      5-min Rain = 0
KJTS 142005Z 19007G14KT 06/M02 A3029 RMK A01 T00571016  RH  060%=      5-min Rain = 0
KJTS 142010Z 19010KT 06/M01 A3028 RMK A01 T00591014  RH  060%=      5-min Rain = 0
KJTS 142015Z 17007KT 06/M01 A3028 RMK A01 T00601013  RH  060%=      5-min Rain = 0
KJTS 142020Z 21007KT 06/M01 A3027 RMK A01 T00631011  RH  060%=      5-min Rain = 0
KJTS 142025Z 19009G14KT 07/M01 A3027 RMK A01 T00681008  RH  059%=      5-min Rain = 0
KJTS 142030Z 19010G15KT 07/M01 A3027 RMK A01 T00661010  RH  059%=      5-min Rain = 0
KJTS 142035Z 19012KT 07/M01 A3027 RMK A01 T00661008  RH  059%=      5-min Rain = 0
KJTS 142040Z 17008KT 07/M01 A3027 RMK A01 T00691005  RH  060%=      5-min Rain = 0
KJTS 142045Z 20011KT 07/M01 A3027 RMK A01 T00721005  RH  059%=      5-min Rain = 0
KJTS 142050Z 21009KT 07/M01 A3027 RMK A01 T00681005  RH  060%=      5-min Rain = 0
KJTS 142055Z 18008G13KT 07/M00 A3026 RMK A01 T00701004  RH  060%=      5-min Rain = 0
KJTS 142100Z 17008G13KT 07/M00 A3026 RMK A01 T00731003  RH  059%=      5-min Rain = 0
KJTS 142105Z 20008KT 08/M00 A3026 RMK A01 T00751001  RH  059%=      5-min Rain = 0
KJTS 142110Z 18010KT 08/M00 A3026 RMK A01 T00771001  RH  059%=      5-min Rain = 0
KJTS 142115Z 19011KT 08/00 A3025 RMK A01 T007600-0  RH  059%=      5-min Rain = 0
KJTS 142120Z 18010KT 08/00 A3025 RMK A01 T007500-0  RH  059%=      5-min Rain = 0
KJTS 142125Z 21007KT 08/00 A3024 RMK A01 T00780002  RH  059%=      5-min Rain = 0
KJTS 142130Z 19009KT 08/00 A3024 RMK A01 T00800003  RH  059%=      5-min Rain = 0
KJTS 142135Z 20010G16KT 08/01 A3024 RMK A01 T00830005  RH  059%=      5-min Rain = 0
KJTS 142140Z 19008G13KT 09/01 A3024 RMK A01 T00850006  RH  058%=      5-min Rain = 0
KJTS 142145Z 20009KT 09/01 A3024 RMK A01 T00880006  RH  057%=      5-min Rain = 0
KJTS 142150Z 19007KT 09/01 A3023 RMK A01 T00850005  RH  058%=      5-min Rain = 0
KJTS 142155Z 17008G16KT 09/01 A3023 RMK A01 T00860007  RH  058%=      5-min Rain = 0
KJTS 142200Z 19007KT 09/01 A3023 RMK A01 T00910008  RH  057%=      5-min Rain = 0
KJTS 142205Z 18010KT 09/01 A3023 RMK A01 T00920008  RH  057%=      5-min Rain = 0
KJTS 142210Z 17007KT 09/01 A3023 RMK A01 T00920009  RH  057%=      5-min Rain = 0
KJTS 142215Z 16007KT 09/01 A3022 RMK A01 T00940009  RH  056%=      5-min Rain = 0
KJTS 142220Z 17008G13KT 10/01 A3022 RMK A01 T00980011  RH  055%=      5-min Rain = 0
KJTS 142225Z 19007G12KT 10/01 A3022 RMK A01 T00960010  RH  056%=      5-min Rain = 0
KJTS 142230Z 18008KT 10/01 A3022 RMK A01 T00990011  RH  055%=      5-min Rain = 0
KJTS 142235Z 18007KT 10/01 A3022 RMK A01 T00980010  RH  055%=      5-min Rain = 0
KJTS 142240Z 19008KT 10/01 A3021 RMK A01 T00980010  RH  055%=      5-min Rain = 0
KJTS 142245Z 18008KT 10/01 A3021 RMK A01 T00990012  RH  055%=      5-min Rain = 0
KJTS 142250Z 18008KT 10/01 A3021 RMK A01 T01010012  RH  055%=      5-min Rain = 0
KJTS 142255Z 17009KT 10/01 A302 RMK A01 T01020012  RH  054%=      5-min Rain = 0
KJTS 142300Z 16006KT 10/01 A302 RMK A01 T01020013  RH  055%=      5-min Rain = 0
KJTS 142305Z 15009KT 10/01 A302 RMK A01 T01030012  RH  054%=      5-min Rain = 0
KJTS 142310Z 15009KT 10/01 A302 RMK A01 T01020013  RH  054%=      5-min Rain = 0
KJTS 142315Z 15008KT 10/01 A3019 RMK A01 T01020013  RH  054%=      5-min Rain = 0
KJTS 142320Z 15008KT 10/01 A3019 RMK A01 T01020013  RH  055%=      5-min Rain = 0
KJTS 142325Z 15006KT 10/01 A3019 RMK A01 T01020012  RH  055%=      5-min Rain = 0
KJTS 142330Z 15008KT 10/01 A3019 RMK A01 T01020013  RH  054%=      5-min Rain = 0
KJTS 142335Z 16007KT 10/01 A3019 RMK A01 T01030012  RH  054%=      5-min Rain = 0
KJTS 142340Z 15007KT 10/01 A3019 RMK A01 T01030013  RH  055%=      5-min Rain = 0
KJTS 142345Z 17006KT 10/02 A3019 RMK A01 T01030015  RH  055%=      5-min Rain = 0
KJTS 142350Z 16006KT 10/01 A3019 RMK A01 T01030014  RH  055%=      5-min Rain = 0
KJTS 142355Z 16006KT 10/02 A3019 RMK A01 T01030015  RH  055%=      5-min Rain = 0
KJTS 150000Z 16005KT 10/02 A3019 RMK A01 T01020016  RH  056%=      5-min Rain = 0
KJTS 150005Z 17006KT 10/02 A3019 RMK A01 T01010017  RH  057%=      5-min Rain = 0
KJTS 150010Z 16005KT 10/02 A3018 RMK A01 T01000017  RH  057%=      5-min Rain = 0
KJTS 150015Z 16008KT 10/02 A3018 RMK A01 T00990018  RH  058%=      5-min Rain = 0
KJTS 150020Z 16007KT 10/02 A3018 RMK A01 T00970017  RH  058%=      5-min Rain = 0
KJTS 150025Z 16006KT 09/02 A3018 RMK A01 T00940016  RH  059%=      5-min Rain = 0
KJTS 150030Z 16006KT 09/02 A3018 RMK A01 T00900015  RH  060%=      5-min Rain = 0
KJTS 150035Z 15006KT 09/02 A3018 RMK A01 T00860015  RH  062%=      5-min Rain = 0
KJTS 150040Z 15005KT 08/01 A3018 RMK A01 T00830014  RH  063%=      5-min Rain = 0
KJTS 150045Z 15006KT 08/01 A3018 RMK A01 T00790013  RH  064%=      5-min Rain = 0
KJTS 150050Z 15006KT 08/01 A3018 RMK A01 T00780014  RH  065%=      5-min Rain = 0
KJTS 150055Z 15007KT 08/01 A3018 RMK A01 T00790014  RH  065%=      5-min Rain = 0
KJTS 150100Z 15006KT 08/01 A3019 RMK A01 T00770014  RH  065%=      5-min Rain = 0
KJTS 150105Z 15006KT 08/01 A3019 RMK A01 T00750013  RH  066%=      5-min Rain = 0
KJTS 150110Z 15006KT 07/01 A3019 RMK A01 T00730013  RH  067%=      5-min Rain = 0
KJTS 150115Z 15006KT 07/01 A3019 RMK A01 T00710012  RH  067%=      5-min Rain = 0
KJTS 150120Z 15006KT 07/01 A3019 RMK A01 T00700012  RH  068%=      5-min Rain = 0
KJTS 150125Z 15006KT 07/01 A3019 RMK A01 T00680012  RH  068%=      5-min Rain = 0
KJTS 150130Z 16006KT 07/01 A3019 RMK A01 T00670012  RH  069%=      5-min Rain = 0
KJTS 150135Z 15007KT 07/01 A3019 RMK A01 T00660012  RH  069%=      5-min Rain = 0
KJTS 150140Z 16007KT 07/01 A3019 RMK A01 T00660012  RH  069%=      5-min Rain = 0
KJTS 150145Z 15007KT 07/01 A3019 RMK A01 T00660012  RH  069%=      5-min Rain = 0
KJTS 150150Z 15007KT 07/01 A3018 RMK A01 T00660012  RH  069%=      5-min Rain = 0
KJTS 150155Z 15007KT 07/01 A3019 RMK A01 T00650012  RH  070%=      5-min Rain = 0
KJTS 150200Z 16007KT 06/01 A3019 RMK A01 T00630011  RH  070%=      5-min Rain = 0
KJTS 150205Z 16007KT 06/01 A3019 RMK A01 T00620011  RH  071%=      5-min Rain = 0
KJTS 150210Z 16006KT 06/01 A3019 RMK A01 T00600011  RH  071%=      5-min Rain = 0
KJTS 150215Z 15007KT 06/01 A3019 RMK A01 T00580010  RH  072%=      5-min Rain = 0
KJTS 150220Z 15007KT 06/01 A3019 RMK A01 T00570010  RH  073%=      5-min Rain = 0
KJTS 150225Z 15007KT 06/01 A3018 RMK A01 T00570011  RH  073%=      5-min Rain = 0
KJTS 150230Z 15008KT 06/01 A3018 RMK A01 T00570011  RH  073%=      5-min Rain = 0
KJTS 150235Z 15008KT 06/01 A3018 RMK A01 T00570012  RH  074%=      5-min Rain = 0
KJTS 150240Z 15008KT 06/01 A3018 RMK A01 T00560012  RH  074%=      5-min Rain = 0
KJTS 150245Z 15008KT 06/01 A3018 RMK A01 T00550011  RH  074%=      5-min Rain = 0
KJTS 150250Z 15007KT 05/01 A3018 RMK A01 T00540010  RH  074%=      5-min Rain = 0
KJTS 150255Z 15007KT 05/01 A3018 RMK A01 T00530010  RH  074%=      5-min Rain = 0
KJTS 150300Z 15008KT 05/01 A3018 RMK A01 T00540009  RH  074%=      5-min Rain = 0
KJTS 150305Z 15007KT 05/01 A3018 RMK A01 T00520009  RH  074%=      5-min Rain = 0
KJTS 150310Z 15007KT 05/01 A3018 RMK A01 T00500008  RH  075%=      5-min Rain = 0
KJTS 150315Z 14007KT 05/01 A3018 RMK A01 T00490008  RH  076%=      5-min Rain = 0
KJTS 150320Z 15006KT 05/01 A3018 RMK A01 T00480008  RH  076%=      5-min Rain = 0
KJTS 150325Z 15006KT 05/01 A3018 RMK A01 T00460007  RH  077%=      5-min Rain = 0
KJTS 150330Z 15006KT 05/01 A3018 RMK A01 T00450007  RH  077%=      5-min Rain = 0
KJTS 150335Z 15005KT 04/01 A3018 RMK A01 T00440006  RH  077%=      5-min Rain = 0
KJTS 150340Z 15005KT 04/01 A3018 RMK A01 T00420005  RH  078%=      5-min Rain = 0
KJTS 150345Z 14005KT 04/00 A3018 RMK A01 T00370002  RH  079%=      5-min Rain = 0
KJTS 150350Z 15004KT 03/00 A3018 RMK A01 T00320001  RH  081%=      5-min Rain = 0
KJTS 150355Z 15004KT 03/00 A3018 RMK A01 T00340002  RH  081%=      5-min Rain = 0
KJTS 150400Z 15005KT 04/00 A3018 RMK A01 T00350003  RH  081%=      5-min Rain = 0
KJTS 150405Z 15006KT 04/01 A3018 RMK A01 T00390006  RH  080%=      5-min Rain = 0
KJTS 150410Z 16007KT 05/01 A3018 RMK A01 T00450008  RH  078%=      5-min Rain = 0
KJTS 150415Z 16007KT 05/01 A3018 RMK A01 T00490008  RH  076%=      5-min Rain = 0
KJTS 150420Z 16008KT 05/01 A3017 RMK A01 T00500009  RH  076%=      5-min Rain = 0
KJTS 150425Z 16008KT 05/01 A3017 RMK A01 T00490008  RH  076%=      5-min Rain = 0
KJTS 150430Z 16008KT 05/01 A3017 RMK A01 T00500008  RH  075%=      5-min Rain = 0
KJTS 150435Z 16008KT 05/01 A3017 RMK A01 T00510008  RH  075%=      5-min Rain = 0
KJTS 150440Z 16008KT 05/01 A3017 RMK A01 T00510008  RH  075%=      5-min Rain = 0
KJTS 150445Z 16008KT 05/01 A3017 RMK A01 T00510008  RH  075%=      5-min Rain = 0
KJTS 150450Z 16008KT 05/01 A3017 RMK A01 T00510008  RH  075%=      5-min Rain = 0
KJTS 150455Z 16007KT 05/01 A3017 RMK A01 T00500008  RH  075%=      5-min Rain = 0
KJTS 150500Z 16007KT 05/01 A3017 RMK A01 T00480007  RH  076%=      5-min Rain = 0
KJTS 150505Z 16006KT 05/01 A3017 RMK A01 T00460007  RH  077%=      5-min Rain = 0
KJTS 150510Z 17006KT 04/01 A3016 RMK A01 T00440006  RH  078%=      5-min Rain = 0
KJTS 150515Z 16005KT 04/01 A3016 RMK A01 T00430006  RH  078%=      5-min Rain = 0
KJTS 150520Z 17005KT 04/01 A3016 RMK A01 T00410006  RH  079%=      5-min Rain = 0
KJTS 150525Z 17007KT 04/01 A3016 RMK A01 T00420006  RH  079%=      5-min Rain = 0
KJTS 150530Z 17008KT 05/01 A3015 RMK A01 T00460008  RH  077%=      5-min Rain = 0
KJTS 150535Z 17009KT 05/01 A3015 RMK A01 T00510010  RH  076%=      5-min Rain = 0
KJTS 150540Z 17009KT 06/01 A3015 RMK A01 T00550011  RH  074%=      5-min Rain = 0
KJTS 150545Z 17008KT 06/01 A3015 RMK A01 T00550011  RH  074%=      5-min Rain = 0
KJTS 150550Z 17008KT 06/01 A3015 RMK A01 T00550010  RH  074%=      5-min Rain = 0
KJTS 150555Z 17008KT 05/01 A3015 RMK A01 T00530010  RH  075%=      5-min Rain = 0

Page generated in 0.0197 seconds.